Khanabad, Karshi Airport (UTSK)

NameKarshi Airport
CityKhanabad
CountryUzbekistan
ICAOUTSK
IATAKSQ
Altitude375 m
CoordinatesGoogle Map
Live Air TrafficLiveATC.net
METARUTSK 152300Z 07006KT CAVOK 12/03 Q1013 R16/CLRD70
2019-03-15 23:00:00 Wind: East-Northeast (70°) 3.09 m/s - Visibility: > 10000 m - Weather: CAVOK - Temperature: 12 °C - Dew point: 3 °C - Humidity: 54.4% - Pressure: 1013 hPa

Sorry, no flights used the airport in this database.